Stump Creek, Pennsylvania
Current Conditions -  °F | °C
As of 3:04 AM on Tuesday 21 Oct 2014 (Local Time) from KDUJ Reporting Station
Haze Haze  
Wind Chill: 44°   Ceiling: 700
Heat Index: 47°   Visibility: 3mi
Dew Point: 46°   Wind: 6mph
Humidity: 97%   Direction: 190°S
Pressure: 29.82"   Gusts: NA
Location:  41.01°N, 78.84°W
Report Text: KDUJ 210704Z AUTO 19005KT 3SM BR BKN007 OVC012 08/08 A2982 RMK AO2 CIG 004V009 T00830078
Loading
Personal Weather Stations






























Interactive Weather Map
Tropical Storm Tracking
New forecast layout! Learn more

10-Day Weather Forecast

Advertisements
Track Severe Weather on mobile